createdAt,value
2022-09-14T00:01:23.603Z,96350.50
2022-09-14T00:03:46.314Z,96345.63
2022-09-14T00:06:15.649Z,96347.25
2022-09-14T00:08:44.250Z,96351.31
2022-09-14T00:11:15.161Z,96349.69
2022-09-14T00:13:43.460Z,96351.78
2022-09-14T00:16:22.863Z,96350.16
2022-09-14T00:18:54.570Z,96348.56
2022-09-14T00:21:21.727Z,96346.63
2022-09-14T00:23:48.394Z,96319.84
2022-09-14T00:26:17.197Z,96329.78
2022-09-14T00:28:49.352Z,96330.81
2022-09-14T00:31:16.754Z,96321.78
2022-09-14T00:33:44.411Z,96321.78
2022-09-14T00:36:13.522Z,96314.84
2022-09-14T00:38:40.541Z,96311.06
2022-09-14T00:41:12.411Z,96303.06
2022-09-14T00:43:52.731Z,96292.88
2022-09-14T00:46:19.256Z,96296.09
2022-09-14T00:48:46.160Z,96295.06
2022-09-14T00:51:13.043Z,96300.38
2022-09-14T00:53:40.083Z,96296.59
2022-09-14T00:56:07.041Z,96294.41
2022-09-14T00:58:33.593Z,96297.19
2022-09-14T01:01:01.623Z,96299.22
2022-09-14T01:03:28.786Z,96296.28
2022-09-14T01:06:05.053Z,96297.91
2022-09-14T01:08:47.132Z,96300.00
2022-09-14T01:11:55.205Z,96298.72
2022-09-14T01:14:21.679Z,96292.28
2022-09-14T01:17:11.095Z,96297.59
2022-09-14T01:20:02.071Z,96298.41
2022-09-14T01:22:52.285Z,96290.97
2022-09-14T01:25:39.188Z,96290.72
2022-09-14T01:28:10.972Z,96288.81
2022-09-14T01:30:39.680Z,96285.53
2022-09-14T01:33:08.145Z,96286.81
2022-09-14T01:35:46.833Z,96291.31
2022-09-14T01:38:20.044Z,96279.22
2022-09-14T01:40:49.356Z,96283.75
2022-09-14T01:43:38.430Z,96282.94
2022-09-14T01:46:14.985Z,96276.50
2022-09-14T01:48:51.065Z,96276.19
2022-09-14T01:51:26.111Z,96269.25
2022-09-14T01:54:27.923Z,96250.03
2022-09-14T01:57:18.268Z,96260.38
2022-09-14T01:59:46.669Z,96254.22
2022-09-14T02:02:18.515Z,96256.84
2022-09-14T02:05:01.593Z,96251.84
2022-09-14T02:07:28.151Z,96256.84
2022-09-14T02:09:55.341Z,96253.88
2022-09-14T02:12:22.855Z,96240.50
2022-09-14T02:14:49.987Z,96244.22
2022-09-14T02:17:16.553Z,96241.69
2022-09-14T02:19:55.799Z,96241.94
2022-09-14T02:22:22.690Z,96235.75
2022-09-14T02:24:49.580Z,96234.38
2022-09-14T02:27:16.098Z,96240.06
2022-09-14T02:29:42.684Z,96238.94
2022-09-14T02:32:30.829Z,96234.34
2022-09-14T02:35:20.628Z,96232.41
2022-09-14T02:38:01.562Z,96225.94
2022-09-14T02:40:38.199Z,96221.09
2022-09-14T02:43:10.861Z,96224.91
2022-09-14T02:45:37.327Z,96219.13
2022-09-14T02:48:12.586Z,96217.97
2022-09-14T02:50:45.180Z,96217.66
2022-09-14T02:54:04.807Z,96211.50
2022-09-14T02:56:31.835Z,96208.84
2022-09-14T02:58:58.397Z,96206.50
2022-09-14T03:01:25.251Z,96214.00
2022-09-14T03:03:51.784Z,96208.94
2022-09-14T03:06:18.431Z,96201.75
2022-09-14T03:08:45.063Z,96201.19
2022-09-14T03:11:11.788Z,96197.25
2022-09-14T03:13:38.530Z,96190.31
2022-09-14T03:16:13.112Z,96193.78
2022-09-14T03:18:39.993Z,96195.06
2022-09-14T03:21:09.869Z,96188.38
2022-09-14T03:23:41.520Z,96188.56
2022-09-14T03:26:13.106Z,96189.91
2022-09-14T03:28:39.975Z,96184.84
2022-09-14T03:31:07.818Z,96188.22
2022-09-14T03:33:34.679Z,96184.53
2022-09-14T03:36:08.920Z,96184.78
2022-09-14T03:38:35.433Z,96179.53
2022-09-14T03:41:01.972Z,96183.00
2022-09-14T03:43:28.491Z,96178.41
2022-09-14T03:45:55.048Z,96174.44
2022-09-14T03:48:21.568Z,96178.41
2022-09-14T03:50:48.198Z,96174.75
2022-09-14T03:53:14.696Z,96168.88
2022-09-14T03:55:41.784Z,96171.53
2022-09-14T03:58:08.296Z,96170.19
2022-09-14T04:00:34.859Z,96169.28
2022-09-14T04:03:01.486Z,96167.91
2022-09-14T04:05:28.097Z,96172.41
2022-09-14T04:07:54.621Z,96164.69
2022-09-14T04:10:21.141Z,96161.69
2022-09-14T04:12:47.695Z,96160.09
2022-09-14T04:15:14.235Z,96162.75
2022-09-14T04:17:40.745Z,96153.16
2022-09-14T04:20:08.033Z,96151.56
2022-09-14T04:22:34.554Z,96154.09
2022-09-14T04:25:01.120Z,96154.69
2022-09-14T04:27:27.919Z,96157.59
2022-09-14T04:29:54.475Z,96159.34
2022-09-14T04:32:20.971Z,96151.84
2022-09-14T04:34:48.995Z,96154.75
2022-09-14T04:37:15.657Z,96155.25
2022-09-14T04:39:42.498Z,96154.44
2022-09-14T04:42:09.116Z,96154.25
2022-09-14T04:44:35.672Z,96154.72
2022-09-14T04:47:02.239Z,96153.44
2022-09-14T04:49:28.778Z,96146.38
2022-09-14T04:51:55.349Z,96147.50
2022-09-14T04:54:22.131Z,96148.44
2022-09-14T04:56:48.693Z,96149.59
2022-09-14T04:59:15.529Z,96144.28
2022-09-14T05:01:47.676Z,96147.50
2022-09-14T05:04:14.378Z,96144.84
2022-09-14T05:06:42.257Z,96143.00
2022-09-14T05:09:14.772Z,96135.28
2022-09-14T05:11:41.891Z,96131.56
2022-09-14T05:14:10.820Z,96132.59
2022-09-14T05:16:38.399Z,96135.81
2022-09-14T05:19:07.107Z,96140.09
2022-09-14T05:21:36.041Z,96140.91
2022-09-14T05:24:05.614Z,96144.59
2022-09-14T05:26:32.801Z,96133.09
2022-09-14T05:29:01.388Z,96140.34
2022-09-14T05:31:29.142Z,96149.13
2022-09-14T05:33:56.071Z,96144.13
2022-09-14T05:36:22.883Z,96141.16
2022-09-14T05:38:49.615Z,96141.19
2022-09-14T05:41:16.944Z,96136.19
2022-09-14T05:43:43.937Z,96141.16
2022-09-14T05:46:12.653Z,96132.00
2022-09-14T05:48:40.206Z,96136.16
2022-09-14T05:51:12.071Z,96127.59
2022-09-14T05:53:38.596Z,96126.47
2022-09-14T05:56:07.600Z,96123.34
2022-09-14T05:58:35.294Z,96126.34
2022-09-14T06:01:29.597Z,96127.59
2022-09-14T06:03:57.661Z,96116.94
2022-09-14T06:06:24.607Z,96130.78
2022-09-14T06:08:53.750Z,96136.41
2022-09-14T06:11:23.627Z,96135.38
2022-09-14T06:13:50.582Z,96128.94
2022-09-14T06:16:19.282Z,96144.38
2022-09-14T06:18:46.706Z,96129.41
2022-09-14T06:21:19.026Z,96133.31
2022-09-14T06:23:46.428Z,96124.53
2022-09-14T06:26:13.459Z,96127.19
2022-09-14T06:28:40.137Z,96135.72
2022-09-14T06:31:07.840Z,96126.75
2022-09-14T06:33:35.067Z,96124.97
2022-09-14T06:36:12.897Z,96131.78
2022-09-14T06:38:40.566Z,96124.88
2022-09-14T06:41:09.244Z,96115.66
2022-09-14T06:43:37.536Z,96126.13
2022-09-14T06:46:06.493Z,96117.81
2022-09-14T06:48:43.130Z,96127.31
2022-09-14T06:51:20.205Z,96129.41
2022-09-14T06:53:48.108Z,96129.72
2022-09-14T06:56:15.788Z,96132.16
2022-09-14T06:58:42.812Z,96125.78
2022-09-14T07:01:15.093Z,96129.00
2022-09-14T07:03:43.870Z,96132.84
2022-09-14T07:06:14.507Z,96138.16
2022-09-14T07:08:41.602Z,96141.00
2022-09-14T07:11:10.229Z,96137.09
2022-09-14T07:13:37.093Z,96136.28
2022-09-14T07:16:04.392Z,96141.81
2022-09-14T07:18:34.201Z,96138.22
2022-09-14T07:21:05.999Z,96144.72
2022-09-14T07:23:33.775Z,96148.97
2022-09-14T07:26:15.486Z,96146.13
2022-09-14T07:28:43.342Z,96142.16
2022-09-14T07:31:21.417Z,96142.16
2022-09-14T07:33:48.810Z,96145.06
2022-09-14T07:36:15.666Z,96149.78
2022-09-14T07:38:52.079Z,96147.38
2022-09-14T07:41:21.332Z,96149.34
2022-09-14T07:43:52.181Z,96133.84
2022-09-14T07:46:19.793Z,96147.13
2022-09-14T07:48:46.719Z,96152.81
2022-09-14T07:51:13.393Z,96155.81
2022-09-14T07:53:45.680Z,96148.16
2022-09-14T07:56:13.589Z,96148.84
2022-09-14T07:58:40.247Z,96143.34
2022-09-14T08:01:12.711Z,96144.47
2022-09-14T08:03:41.168Z,96140.84
2022-09-14T08:06:14.046Z,96143.94
2022-09-14T08:08:43.328Z,96144.97
2022-09-14T08:11:15.513Z,96141.84
2022-09-14T08:13:44.553Z,96140.69
2022-09-14T08:16:12.514Z,96137.47
2022-09-14T08:18:39.729Z,96136.19
2022-09-14T08:21:08.794Z,96131.91
2022-09-14T08:23:35.757Z,96119.91
2022-09-14T08:26:04.229Z,96127.41
2022-09-14T08:28:30.955Z,96123.25
2022-09-14T08:31:11.958Z,96120.91
2022-09-14T08:33:41.138Z,96122.69
2022-09-14T08:36:09.116Z,96122.19
2022-09-14T08:38:36.190Z,96115.66
2022-09-14T08:41:12.698Z,96115.56
2022-09-14T08:43:39.578Z,96118.50
2022-09-14T08:46:10.170Z,96119.19
2022-09-14T08:48:48.107Z,96120.56
2022-09-14T08:51:15.699Z,96120.22
2022-09-14T08:53:42.725Z,96123.22
2022-09-14T08:56:19.444Z,96120.88
2022-09-14T08:58:53.023Z,96114.13
2022-09-14T09:01:47.247Z,96125.38
2022-09-14T09:04:20.064Z,96120.22
2022-09-14T09:07:04.123Z,96121.69
2022-09-14T09:09:43.626Z,96127.59
2022-09-14T09:12:22.397Z,96130.34
2022-09-14T09:14:58.288Z,96134.13
2022-09-14T09:17:41.049Z,96123.06
2022-09-14T09:20:39.477Z,96127.28
2022-09-14T09:23:11.907Z,96124.75
2022-09-14T09:25:58.564Z,96122.66
2022-09-14T09:28:26.836Z,96124.25
2022-09-14T09:30:54.622Z,96118.06
2022-09-14T09:33:23.937Z,96120.56
2022-09-14T09:35:51.399Z,96123.34
2022-09-14T09:38:24.948Z,96129.22
2022-09-14T09:41:00.548Z,96126.00
2022-09-14T09:43:45.807Z,96129.22
2022-09-14T09:46:14.629Z,96121.72
2022-09-14T09:48:43.684Z,96118.59
2022-09-14T09:51:33.580Z,96122.28
2022-09-14T09:54:12.271Z,96120.97
2022-09-14T09:56:52.416Z,96123.25
2022-09-14T09:59:31.019Z,96109.78
2022-09-14T10:02:17.543Z,96115.09
2022-09-14T10:05:10.892Z,96111.94
2022-09-14T10:07:42.786Z,96112.28
2022-09-14T10:10:12.432Z,96110.06
2022-09-14T10:12:45.224Z,96107.75
2022-09-14T10:15:27.044Z,96100.97
2022-09-14T10:18:11.889Z,96114.25
2022-09-14T10:20:39.621Z,96108.44
2022-09-14T10:23:36.923Z,96107.50
2022-09-14T10:26:18.848Z,96103.31
2022-09-14T10:28:49.947Z,96105.59
2022-09-14T10:31:19.354Z,96104.09
2022-09-14T10:33:47.048Z,96109.47
2022-09-14T10:36:19.947Z,96099.16
2022-09-14T10:39:08.945Z,96096.34
2022-09-14T10:41:45.564Z,96110.63
2022-09-14T10:44:33.966Z,96109.50
2022-09-14T10:47:18.860Z,96110.53
2022-09-14T10:50:04.282Z,96099.72
2022-09-14T10:52:43.680Z,96099.56
2022-09-14T10:55:34.119Z,96089.84
2022-09-14T10:58:18.112Z,96085.88
2022-09-14T11:00:58.852Z,96091.41
2022-09-14T11:03:54.832Z,96097.38
2022-09-14T11:06:40.180Z,96074.44
2022-09-14T11:09:15.157Z,96074.19
2022-09-14T11:11:48.857Z,96070.78
2022-09-14T11:14:39.874Z,96065.47
2022-09-14T11:17:21.611Z,96071.22
2022-09-14T11:20:15.586Z,96074.84
2022-09-14T11:22:48.068Z,96066.47
2022-09-14T11:25:22.236Z,96059.22
2022-09-14T11:27:52.768Z,96072.09
2022-09-14T11:30:21.732Z,96067.41
2022-09-14T11:32:57.249Z,96069.50
2022-09-14T11:35:45.193Z,96068.72
2022-09-14T11:38:17.143Z,96068.56
2022-09-14T11:40:55.953Z,96064.38
2022-09-14T11:43:41.289Z,96075.63
2022-09-14T11:46:11.653Z,96079.44
2022-09-14T11:48:44.534Z,96073.56
2022-09-14T11:51:22.509Z,96073.88
2022-09-14T11:53:49.877Z,96080.06
2022-09-14T11:56:28.017Z,96081.28
2022-09-14T11:58:56.352Z,96080.81
2022-09-14T12:01:41.177Z,96087.63
2022-09-14T12:04:17.790Z,96093.75
2022-09-14T12:06:50.382Z,96089.81
2022-09-14T12:09:24.532Z,96077.41
2022-09-14T12:12:00.867Z,96085.84
2022-09-14T12:14:35.818Z,96072.72
2022-09-14T12:17:41.361Z,96082.09
2022-09-14T12:20:41.926Z,96076.03
2022-09-14T12:23:29.127Z,96066.47
2022-09-14T12:26:01.616Z,96052.38
2022-09-14T12:28:39.012Z,96040.75
2022-09-14T12:31:05.563Z,96046.94
2022-09-14T12:33:35.010Z,96044.47
2022-09-14T12:36:01.502Z,96039.94
2022-09-14T12:38:31.070Z,96051.03
2022-09-14T12:41:15.513Z,96047.78
2022-09-14T12:43:42.027Z,96048.75
2022-09-14T12:46:20.918Z,96044.41
2022-09-14T12:48:47.718Z,96048.03
2022-09-14T12:51:32.704Z,96046.00
2022-09-14T12:54:01.970Z,96045.19
2022-09-14T12:56:41.481Z,96040.06
2022-09-14T12:59:08.731Z,96017.59
2022-09-14T13:01:51.511Z,96024.50
2022-09-14T13:04:29.845Z,96017.94
2022-09-14T13:06:57.460Z,96010.81
2022-09-14T13:09:26.325Z,96004.31
2022-09-14T13:11:55.103Z,96015.59
2022-09-14T13:14:24.284Z,95999.06
2022-09-14T13:16:52.179Z,96012.06
2022-09-14T13:19:25.055Z,96005.47
2022-09-14T13:21:54.873Z,96001.44
2022-09-14T13:24:43.563Z,96003.56
2022-09-14T13:27:30.716Z,95995.22
2022-09-14T13:30:03.279Z,95991.59
2022-09-14T13:32:30.615Z,95999.00
2022-09-14T13:34:57.918Z,95992.53
2022-09-14T13:37:25.035Z,95993.53
2022-09-14T13:39:54.366Z,95986.50
2022-09-14T13:42:21.563Z,95992.28
2022-09-14T13:44:49.834Z,95983.69
2022-09-14T13:47:21.806Z,95990.38
2022-09-14T13:49:50.457Z,95981.09
2022-09-14T13:52:43.448Z,95993.22
2022-09-14T13:55:22.720Z,95986.75
2022-09-14T13:58:13.131Z,95999.16
2022-09-14T14:01:06.146Z,96016.94
2022-09-14T14:03:47.644Z,96021.63
2022-09-14T14:06:17.132Z,96030.59
2022-09-14T14:08:43.830Z,96023.06
2022-09-14T14:11:10.460Z,96025.56
2022-09-14T14:13:38.296Z,96023.34
2022-09-14T14:16:17.143Z,96004.34
2022-09-14T14:18:49.141Z,96012.72
2022-09-14T14:21:34.061Z,95996.00
2022-09-14T14:24:26.949Z,95994.13
2022-09-14T14:26:58.018Z,95988.22
2022-09-14T14:29:25.722Z,95984.66
2022-09-14T14:31:55.274Z,95980.34
2022-09-14T14:34:24.320Z,95988.84
2022-09-14T14:36:51.020Z,95986.72
2022-09-14T14:39:19.508Z,95982.75
2022-09-14T14:41:47.028Z,95976.47
2022-09-14T14:44:18.595Z,95982.34
2022-09-14T14:46:45.623Z,95988.31
2022-09-14T14:49:16.164Z,95981.34
2022-09-14T14:51:43.248Z,95982.50
2022-09-14T14:54:10.508Z,95980.16
2022-09-14T14:56:40.083Z,95983.13
2022-09-14T14:59:22.092Z,95975.09
2022-09-14T15:01:52.031Z,95966.63
2022-09-14T15:04:18.830Z,95967.53
2022-09-14T15:06:46.493Z,95968.56
2022-09-14T15:09:18.237Z,95974.13
2022-09-14T15:11:45.081Z,95972.50
2022-09-14T15:14:14.081Z,95963.66
2022-09-14T15:16:40.902Z,95944.84
2022-09-14T15:19:07.835Z,95947.50
2022-09-14T15:21:34.390Z,95951.56
2022-09-14T15:24:01.400Z,95939.47
2022-09-14T15:26:28.347Z,95939.78
2022-09-14T15:28:54.905Z,95943.44
2022-09-14T15:31:21.611Z,95953.22
2022-09-14T15:33:48.219Z,95966.03
2022-09-14T15:36:35.346Z,95953.88
2022-09-14T15:39:01.999Z,95955.16
2022-09-14T15:41:28.528Z,95936.66
2022-09-14T15:43:55.101Z,95931.34
2022-09-14T15:46:21.610Z,95927.00
2022-09-14T15:48:48.149Z,95946.66
2022-09-14T15:51:14.724Z,95945.28
2022-09-14T15:53:42.100Z,95942.88
2022-09-14T15:56:15.972Z,95946.75
2022-09-14T15:58:47.225Z,95950.00
2022-09-14T16:01:16.654Z,95959.81
2022-09-14T16:03:43.558Z,95950.97
2022-09-14T16:06:11.703Z,95945.19
2022-09-14T16:08:39.085Z,95952.22
2022-09-14T16:11:07.254Z,95953.97
2022-09-14T16:13:34.613Z,95960.00
2022-09-14T16:16:13.561Z,95962.41
2022-09-14T16:18:40.626Z,95956.78
2022-09-14T16:21:18.907Z,95956.19
2022-09-14T16:23:48.059Z,95956.34
2022-09-14T16:26:21.887Z,95949.19
2022-09-14T16:28:49.667Z,95948.63
2022-09-14T16:31:21.665Z,95949.59
2022-09-14T16:33:55.554Z,95952.34
2022-09-14T16:36:26.120Z,95955.38
2022-09-14T16:38:55.381Z,95965.06
2022-09-14T16:41:21.911Z,95960.31
2022-09-14T16:44:02.835Z,95959.75
2022-09-14T16:46:30.552Z,95968.19
2022-09-14T16:48:58.690Z,95974.31
2022-09-14T16:51:28.129Z,95963.56
2022-09-14T16:53:54.732Z,95971.97
2022-09-14T16:56:35.180Z,95973.09
2022-09-14T16:59:02.602Z,95960.53
2022-09-14T17:01:37.182Z,95961.44
2022-09-14T17:04:09.593Z,95971.56
2022-09-14T17:06:38.365Z,95984.34
2022-09-14T17:09:14.849Z,95984.84
2022-09-14T17:11:42.055Z,95993.63
2022-09-14T17:14:12.875Z,95991.19
2022-09-14T17:16:39.479Z,95987.50
2022-09-14T17:19:06.293Z,95996.03
2022-09-14T17:21:35.617Z,95990.63
2022-09-14T17:24:02.804Z,96000.22
2022-09-14T17:26:29.374Z,95995.69
2022-09-14T17:28:57.555Z,95988.13
2022-09-14T17:31:26.521Z,95991.59
2022-09-14T17:33:55.045Z,95992.97
2022-09-14T17:36:21.972Z,95994.25
2022-09-14T17:38:49.038Z,95995.63
2022-09-14T17:41:19.095Z,95996.66
2022-09-14T17:43:50.860Z,96003.28
2022-09-14T17:46:17.808Z,95997.28
2022-09-14T17:48:44.563Z,96010.31
2022-09-14T17:51:18.189Z,96007.91
2022-09-14T17:53:45.405Z,96002.75
2022-09-14T17:56:14.198Z,96006.13
2022-09-14T17:58:42.100Z,96006.00
2022-09-14T18:01:13.662Z,96005.00
2022-09-14T18:03:42.555Z,96012.38
2022-09-14T18:06:12.243Z,96008.56
2022-09-14T18:08:39.304Z,96011.47
2022-09-14T18:11:07.915Z,96014.13
2022-09-14T18:13:34.631Z,95999.16
2022-09-14T18:16:01.721Z,96012.19
2022-09-14T18:18:28.462Z,96010.56
2022-09-14T18:20:55.000Z,95998.94
2022-09-14T18:23:21.681Z,96009.56
2022-09-14T18:25:48.278Z,96021.47
2022-09-14T18:28:14.801Z,96029.09
2022-09-14T18:30:43.669Z,96025.63
2022-09-14T18:33:10.897Z,96020.56
2022-09-14T18:35:38.290Z,96016.63
2022-09-14T18:38:06.678Z,96023.53
2022-09-14T18:40:34.729Z,96022.75
2022-09-14T18:43:01.449Z,96029.00
2022-09-14T18:45:28.885Z,96033.25
2022-09-14T18:47:55.722Z,96014.94
2022-09-14T18:50:23.267Z,96022.41
2022-09-14T18:52:53.089Z,96023.94
2022-09-14T18:55:19.713Z,96029.81
2022-09-14T18:57:47.369Z,96035.66
2022-09-14T19:00:18.319Z,96043.63
2022-09-14T19:02:45.960Z,96042.13
2022-09-14T19:05:12.795Z,96042.34
2022-09-14T19:07:39.323Z,96040.50
2022-09-14T19:10:10.899Z,96039.94
2022-09-14T19:12:38.202Z,96046.63
2022-09-14T19:15:05.579Z,96045.56
2022-09-14T19:17:32.313Z,96047.19
2022-09-14T19:19:59.096Z,96044.75
2022-09-14T19:22:25.788Z,96051.69
2022-09-14T19:24:52.333Z,96053.78
2022-09-14T19:27:18.847Z,96061.16
2022-09-14T19:29:45.477Z,96062.09
2022-09-14T19:32:12.116Z,96077.31
2022-09-14T19:34:38.769Z,96075.94
2022-09-14T19:37:05.414Z,96075.72
2022-09-14T19:39:32.055Z,96071.53
2022-09-14T19:41:58.692Z,96068.88
2022-09-14T19:44:25.317Z,96068.88
2022-09-14T19:46:52.337Z,96077.31
2022-09-14T19:49:23.799Z,96058.41
2022-09-14T19:51:50.521Z,96057.63
2022-09-14T19:54:17.583Z,96056.81
2022-09-14T19:56:44.563Z,96063.72
2022-09-14T19:59:11.262Z,96070.31
2022-09-14T20:01:39.242Z,96070.31
2022-09-14T20:04:07.322Z,96069.50
2022-09-14T20:06:36.377Z,96064.66
2022-09-14T20:09:04.477Z,96057.41
2022-09-14T20:11:32.205Z,96055.56
2022-09-14T20:14:01.145Z,96056.13
2022-09-14T20:16:31.003Z,96062.72
2022-09-14T20:18:59.587Z,96062.59
2022-09-14T20:21:27.261Z,96066.63
2022-09-14T20:24:15.728Z,96059.50
2022-09-14T20:26:43.492Z,96064.84
2022-09-14T20:29:10.087Z,96070.34
2022-09-14T20:31:36.772Z,96070.09
2022-09-14T20:34:03.870Z,96083.34
2022-09-14T20:36:30.644Z,96088.66
2022-09-14T20:38:59.322Z,96083.13
2022-09-14T20:41:31.701Z,96090.38
2022-09-14T20:43:58.274Z,96082.19
2022-09-14T20:46:27.261Z,96094.97
2022-09-14T20:48:54.618Z,96085.88
2022-09-14T20:51:22.410Z,96078.72
2022-09-14T20:53:49.080Z,96081.72
2022-09-14T20:56:21.202Z,96079.53
2022-09-14T20:58:48.545Z,96083.78
2022-09-14T21:01:18.382Z,96079.53
2022-09-14T21:03:46.944Z,96075.75
2022-09-14T21:06:15.776Z,96083.94
2022-09-14T21:08:42.921Z,96071.78
2022-09-14T21:11:10.960Z,96079.09
2022-09-14T21:13:37.991Z,96076.63
2022-09-14T21:16:15.646Z,96087.34
2022-09-14T21:18:42.983Z,96083.53
2022-09-14T21:21:12.129Z,96079.84
2022-09-14T21:23:38.859Z,96080.09
2022-09-14T21:26:06.980Z,96079.28
2022-09-14T21:28:37.651Z,96092.53
2022-09-14T21:31:16.273Z,96090.69
2022-09-14T21:33:45.118Z,96091.50
2022-09-14T21:36:17.651Z,96094.84
2022-09-14T21:38:52.128Z,96086.09
2022-09-14T21:41:19.717Z,96095.19
2022-09-14T21:43:47.124Z,96094.38
2022-09-14T21:46:14.492Z,96103.94
2022-09-14T21:48:41.334Z,96101.88
2022-09-14T21:51:26.117Z,96099.91
2022-09-14T21:53:54.751Z,96104.97
2022-09-14T21:56:23.498Z,96097.59
2022-09-14T21:58:51.835Z,96104.97
2022-09-14T22:01:19.233Z,96098.31
2022-09-14T22:03:45.845Z,96101.75
2022-09-14T22:06:13.669Z,96103.91
2022-09-14T22:08:40.409Z,96115.31
2022-09-14T22:11:11.743Z,96110.50
2022-09-14T22:13:38.626Z,96120.28
2022-09-14T22:16:15.702Z,96115.56
2022-09-14T22:18:48.837Z,96122.66
2022-09-14T22:21:15.578Z,96121.59
2022-09-14T22:23:42.084Z,96125.38
2022-09-14T22:26:10.547Z,96123.47
2022-09-14T22:28:40.031Z,96127.03
2022-09-14T22:31:07.518Z,96128.59
2022-09-14T22:33:34.815Z,96131.56
2022-09-14T22:36:02.703Z,96124.38
2022-09-14T22:38:34.610Z,96120.78
2022-09-14T22:41:12.643Z,96127.56
2022-09-14T22:43:40.133Z,96138.00
2022-09-14T22:46:07.987Z,96138.88
2022-09-14T22:48:35.051Z,96133.53
2022-09-14T22:51:01.989Z,96130.16
2022-09-14T22:53:29.552Z,96135.72
2022-09-14T22:55:56.754Z,96139.56
2022-09-14T22:58:26.097Z,96138.34
2022-09-14T23:00:53.475Z,96146.56
2022-09-14T23:03:20.388Z,96133.44
2022-09-14T23:05:52.253Z,96138.59
2022-09-14T23:08:19.461Z,96141.09
2022-09-14T23:10:46.580Z,96149.09
2022-09-14T23:13:13.187Z,96146.91
2022-09-14T23:15:40.241Z,96143.09
2022-09-14T23:18:07.558Z,96148.81
2022-09-14T23:20:38.915Z,96148.22
2022-09-14T23:23:05.456Z,96154.91
2022-09-14T23:25:35.388Z,96155.50
2022-09-14T23:28:03.041Z,96166.25
2022-09-14T23:30:29.936Z,96160.31
2022-09-14T23:32:58.101Z,96160.31
2022-09-14T23:35:26.816Z,96162.09
2022-09-14T23:37:53.447Z,96170.59
2022-09-14T23:40:20.114Z,96163.41
2022-09-14T23:42:47.903Z,96162.09
2022-09-14T23:45:15.095Z,96161.84
2022-09-14T23:47:41.747Z,96162.34
2022-09-14T23:50:08.878Z,96162.09
2022-09-14T23:52:35.423Z,96157.75
2022-09-14T23:55:01.964Z,96165.25
2022-09-14T23:57:28.479Z,96165.00
2022-09-14T23:59:55.021Z,96165.56
